createdAt,value
2023-08-29T00:02:13.432Z,5.90
2023-08-29T00:04:45.646Z,7.00
2023-08-29T00:07:17.606Z,3.80
2023-08-29T00:09:49.576Z,5.10
2023-08-29T00:12:22.090Z,6.10
2023-08-29T00:14:54.698Z,5.10
2023-08-29T00:17:33.228Z,3.40
2023-08-29T00:20:08.871Z,6.00
2023-08-29T00:22:45.225Z,5.80
2023-08-29T00:25:17.515Z,7.90
2023-08-29T00:27:54.336Z,7.60
2023-08-29T00:30:26.770Z,4.60
2023-08-29T00:32:58.867Z,5.80
2023-08-29T00:35:33.111Z,6.00
2023-08-29T00:38:07.531Z,6.70
2023-08-29T00:40:52.682Z,5.70
2023-08-29T00:43:27.861Z,5.40
2023-08-29T00:46:02.384Z,6.50
2023-08-29T00:48:35.425Z,6.80
2023-08-29T00:51:07.914Z,4.40
2023-08-29T00:53:40.431Z,7.20
2023-08-29T00:56:20.560Z,5.90
2023-08-29T00:58:56.729Z,8.80
2023-08-29T01:01:30.516Z,7.10
2023-08-29T01:04:06.288Z,5.60
2023-08-29T01:06:41.676Z,4.60
2023-08-29T01:09:15.297Z,7.30
2023-08-29T01:11:57.176Z,6.40
2023-08-29T01:14:39.192Z,5.70
2023-08-29T01:17:18.069Z,8.20
2023-08-29T01:19:56.836Z,4.90
2023-08-29T01:22:39.758Z,4.80
2023-08-29T01:25:20.577Z,6.90
2023-08-29T01:27:58.887Z,4.90
2023-08-29T01:30:33.532Z,3.80
2023-08-29T01:33:06.168Z,7.90
2023-08-29T01:35:45.254Z,4.00
2023-08-29T01:38:21.510Z,3.90
2023-08-29T01:41:00.751Z,3.90
2023-08-29T01:43:36.530Z,4.80
2023-08-29T01:46:08.805Z,3.40
2023-08-29T01:48:49.625Z,5.70
2023-08-29T01:51:22.375Z,1.90
2023-08-29T01:53:57.682Z,2.40
2023-08-29T01:56:34.204Z,4.20
2023-08-29T01:59:10.603Z,3.40
2023-08-29T02:01:58.866Z,6.40
2023-08-29T02:04:34.582Z,5.30
2023-08-29T02:07:06.845Z,7.50
2023-08-29T02:09:39.664Z,4.70
2023-08-29T02:12:11.930Z,2.70
2023-08-29T02:14:45.746Z,3.20
2023-08-29T02:17:17.850Z,2.80
2023-08-29T02:19:52.616Z,3.40
2023-08-29T02:22:26.827Z,3.70
2023-08-29T02:25:01.241Z,4.20
2023-08-29T02:27:34.360Z,1.90
2023-08-29T02:30:09.680Z,3.90
2023-08-29T02:32:46.072Z,2.00
2023-08-29T02:35:25.746Z,2.20
2023-08-29T02:38:00.568Z,2.90
2023-08-29T02:40:43.548Z,3.10
2023-08-29T02:43:18.848Z,4.10
2023-08-29T02:45:54.690Z,3.30
2023-08-29T02:48:28.586Z,2.30
2023-08-29T02:51:00.816Z,2.80
2023-08-29T02:53:33.037Z,2.10
2023-08-29T02:56:05.690Z,1.50
2023-08-29T02:58:45.934Z,2.60
2023-08-29T03:01:21.825Z,4.00
2023-08-29T03:03:54.347Z,4.30
2023-08-29T03:06:28.897Z,3.70
2023-08-29T03:09:13.507Z,2.00
2023-08-29T03:11:48.025Z,2.10
2023-08-29T03:14:20.241Z,2.20
2023-08-29T03:17:00.151Z,4.10
2023-08-29T03:19:38.546Z,5.00
2023-08-29T03:22:11.685Z,4.00
2023-08-29T03:24:50.444Z,2.90
2023-08-29T03:27:23.502Z,3.80
2023-08-29T03:29:58.529Z,2.10
2023-08-29T03:32:34.262Z,2.30
2023-08-29T03:35:13.225Z,5.30
2023-08-29T03:37:45.967Z,2.30
2023-08-29T03:40:18.330Z,3.90
2023-08-29T03:42:51.123Z,3.90
2023-08-29T03:45:23.203Z,3.10
2023-08-29T03:47:58.131Z,3.60
2023-08-29T03:50:40.682Z,1.50
2023-08-29T03:53:12.731Z,2.30
2023-08-29T03:55:48.389Z,2.20
2023-08-29T03:58:24.590Z,3.70
2023-08-29T04:01:00.715Z,2.70
2023-08-29T04:03:41.660Z,2.60
2023-08-29T04:08:58.555Z,2.80
2023-08-29T04:11:41.190Z,4.90
2023-08-29T04:14:13.523Z,3.50
2023-08-29T04:16:47.707Z,7.40
2023-08-29T04:19:28.824Z,5.30
2023-08-29T04:22:00.851Z,5.20
2023-08-29T04:24:35.865Z,6.40
2023-08-29T04:27:12.510Z,4.30
2023-08-29T04:29:45.814Z,4.70
2023-08-29T04:32:18.622Z,3.50
2023-08-29T04:34:51.465Z,3.10
2023-08-29T04:37:23.423Z,5.00
2023-08-29T04:39:57.921Z,6.90
2023-08-29T04:42:32.470Z,5.50
2023-08-29T04:45:13.940Z,5.10
2023-08-29T04:47:51.224Z,2.70
2023-08-29T04:50:23.674Z,3.70
2023-08-29T04:52:57.222Z,4.80
2023-08-29T04:55:32.557Z,9.50
2023-08-29T04:58:05.014Z,2.90
2023-08-29T05:00:38.267Z,2.70
2023-08-29T05:03:11.065Z,3.50
2023-08-29T05:05:49.099Z,4.10
2023-08-29T05:08:24.363Z,6.00
2023-08-29T05:10:58.245Z,3.00
2023-08-29T05:13:33.332Z,3.30
2023-08-29T05:16:07.081Z,6.30
2023-08-29T05:18:39.474Z,4.50
2023-08-29T05:21:11.943Z,3.50
2023-08-29T05:23:46.223Z,4.60
2023-08-29T05:26:27.849Z,5.00
2023-08-29T05:28:59.809Z,4.30
2023-08-29T05:31:33.153Z,3.30
2023-08-29T05:34:05.170Z,4.20
2023-08-29T05:36:38.368Z,4.60
2023-08-29T05:39:10.559Z,5.30
2023-08-29T05:41:42.859Z,4.90
2023-08-29T05:44:14.968Z,4.80
2023-08-29T05:46:50.992Z,5.40
2023-08-29T05:49:24.015Z,6.30
2023-08-29T05:51:58.776Z,5.10
2023-08-29T05:54:33.140Z,3.70
2023-08-29T05:57:08.506Z,4.30
2023-08-29T05:59:41.765Z,5.10
2023-08-29T06:02:13.941Z,3.90
2023-08-29T06:08:13.332Z,3.70
2023-08-29T06:10:51.289Z,5.40
2023-08-29T06:13:26.873Z,6.40
2023-08-29T06:16:01.366Z,8.70
2023-08-29T06:18:35.661Z,3.50
2023-08-29T06:21:10.914Z,5.40
2023-08-29T06:23:45.815Z,7.70
2023-08-29T06:26:18.760Z,7.00
2023-08-29T06:28:50.929Z,5.30
2023-08-29T06:31:25.790Z,2.50
2023-08-29T06:34:00.934Z,6.70
2023-08-29T06:36:33.052Z,3.70
2023-08-29T06:39:14.773Z,3.00
2023-08-29T06:41:47.636Z,3.80
2023-08-29T06:44:19.981Z,5.70
2023-08-29T06:46:52.833Z,4.60
2023-08-29T06:49:30.209Z,4.60
2023-08-29T06:52:03.899Z,3.90
2023-08-29T06:54:39.430Z,6.50
2023-08-29T06:59:48.685Z,1.90
2023-08-29T07:02:34.854Z,3.20
2023-08-29T07:05:08.309Z,4.40
2023-08-29T07:07:41.925Z,4.10
2023-08-29T07:10:14.456Z,3.80
2023-08-29T07:12:48.388Z,3.80
2023-08-29T07:15:23.897Z,2.30
2023-08-29T07:17:58.151Z,6.40
2023-08-29T07:20:35.830Z,5.50
2023-08-29T07:23:09.856Z,6.60
2023-08-29T07:25:47.715Z,3.60
2023-08-29T07:28:23.029Z,3.60
2023-08-29T07:31:01.832Z,5.10
2023-08-29T07:33:34.934Z,3.90
2023-08-29T07:36:08.538Z,4.80
2023-08-29T07:38:42.570Z,7.10
2023-08-29T07:41:25.462Z,5.00
2023-08-29T07:44:03.953Z,7.30
2023-08-29T07:46:36.887Z,7.50
2023-08-29T07:49:17.492Z,5.80
2023-08-29T07:52:03.138Z,5.40
2023-08-29T07:54:39.190Z,6.60
2023-08-29T07:57:18.397Z,6.30
2023-08-29T07:59:50.919Z,7.20
2023-08-29T08:02:23.403Z,5.30
2023-08-29T08:05:07.729Z,7.80
2023-08-29T08:07:46.844Z,4.50
2023-08-29T08:10:22.623Z,5.20
2023-08-29T08:13:17.327Z,5.40
2023-08-29T08:15:54.413Z,5.40
2023-08-29T08:18:29.780Z,10.40
2023-08-29T08:21:05.829Z,6.70
2023-08-29T08:23:53.562Z,9.30
2023-08-29T08:26:34.486Z,7.60
2023-08-29T08:29:13.720Z,7.00
2023-08-29T08:31:50.851Z,9.80
2023-08-29T08:34:25.123Z,5.30
2023-08-29T08:36:59.749Z,10.00
2023-08-29T08:39:40.135Z,8.90
2023-08-29T08:42:17.423Z,9.90
2023-08-29T08:44:53.408Z,10.90
2023-08-29T08:47:27.790Z,9.00
2023-08-29T08:50:02.066Z,9.10
2023-08-29T08:52:36.656Z,15.00
2023-08-29T08:55:14.577Z,10.70
2023-08-29T08:57:52.431Z,10.80
2023-08-29T09:00:31.352Z,11.20
2023-08-29T09:03:05.505Z,10.70
2023-08-29T09:05:40.365Z,9.20
2023-08-29T09:08:13.189Z,11.00
2023-08-29T09:10:47.817Z,8.20
2023-08-29T09:13:21.932Z,12.30
2023-08-29T09:15:54.028Z,10.30
2023-08-29T09:18:30.356Z,12.10
2023-08-29T09:21:06.343Z,10.70
2023-08-29T09:23:41.820Z,13.70
2023-08-29T09:26:15.346Z,11.00
2023-08-29T09:28:47.976Z,9.20
2023-08-29T09:31:20.032Z,13.40
2023-08-29T09:33:52.240Z,13.20
2023-08-29T09:36:26.974Z,16.80
2023-08-29T09:39:01.285Z,15.20
2023-08-29T09:41:34.014Z,15.20
2023-08-29T09:44:14.685Z,19.60
2023-08-29T09:46:50.736Z,14.40
2023-08-29T09:49:23.306Z,17.40
2023-08-29T09:52:02.693Z,15.90
2023-08-29T09:54:37.057Z,15.20
2023-08-29T09:57:10.833Z,14.80
2023-08-29T09:59:46.574Z,18.10
2023-08-29T10:02:21.778Z,15.40
2023-08-29T10:04:57.916Z,13.60
2023-08-29T10:07:35.823Z,14.30
2023-08-29T10:10:11.590Z,14.60
2023-08-29T10:12:45.709Z,17.10
2023-08-29T10:15:19.505Z,12.90
2023-08-29T10:17:57.238Z,14.40
2023-08-29T10:20:30.280Z,15.80
2023-08-29T10:23:09.310Z,16.30
2023-08-29T10:25:45.415Z,14.70
2023-08-29T10:28:19.105Z,13.00
2023-08-29T10:30:57.124Z,16.20
2023-08-29T10:33:32.602Z,17.50
2023-08-29T10:36:10.911Z,13.40
2023-08-29T10:38:48.714Z,13.50
2023-08-29T10:41:23.325Z,16.60
2023-08-29T10:44:34.108Z,13.70
2023-08-29T10:47:21.619Z,17.30
2023-08-29T10:50:00.497Z,16.30
2023-08-29T10:52:47.985Z,12.50
2023-08-29T10:55:29.999Z,13.30
2023-08-29T10:58:37.138Z,14.90
2023-08-29T11:01:33.025Z,13.40
2023-08-29T11:04:14.137Z,20.00
2023-08-29T11:06:58.234Z,15.00
2023-08-29T11:09:31.438Z,15.00
2023-08-29T11:12:12.322Z,16.10
2023-08-29T11:14:58.059Z,14.50
2023-08-29T11:17:30.221Z,15.90
2023-08-29T11:20:03.866Z,18.80
2023-08-29T11:22:36.056Z,15.30
2023-08-29T11:25:10.263Z,13.90
2023-08-29T11:27:49.854Z,15.80
2023-08-29T11:30:31.249Z,16.00
2023-08-29T11:33:11.084Z,14.70
2023-08-29T11:35:44.265Z,16.20
2023-08-29T11:38:17.469Z,17.30
2023-08-29T11:41:03.642Z,16.10
2023-08-29T11:44:41.635Z,17.90
2023-08-29T11:46:37.430Z,16.40
2023-08-29T11:49:18.581Z,17.90
2023-08-29T11:51:56.681Z,17.70
2023-08-29T11:54:54.331Z,18.20
2023-08-29T11:57:31.141Z,14.40
2023-08-29T12:00:16.677Z,14.60
2023-08-29T12:02:51.496Z,15.30
2023-08-29T12:05:27.193Z,14.00
2023-08-29T12:07:59.209Z,16.90
2023-08-29T12:10:32.701Z,14.60
2023-08-29T12:13:17.625Z,14.20
2023-08-29T12:15:52.434Z,17.50
2023-08-29T12:18:26.185Z,18.30
2023-08-29T12:21:16.716Z,18.30
2023-08-29T12:23:49.268Z,13.50
2023-08-29T12:26:25.906Z,17.30
2023-08-29T12:28:58.538Z,19.60
2023-08-29T12:31:30.879Z,15.80
2023-08-29T12:34:02.915Z,15.20
2023-08-29T12:36:34.987Z,16.70
2023-08-29T12:39:09.881Z,16.30
2023-08-29T12:41:48.385Z,14.90
2023-08-29T12:44:23.550Z,17.20
2023-08-29T12:46:56.077Z,16.10
2023-08-29T12:49:28.241Z,21.90
2023-08-29T12:52:00.534Z,17.20
2023-08-29T12:54:37.109Z,16.80
2023-08-29T12:57:09.660Z,13.90
2023-08-29T12:59:45.050Z,15.90
2023-08-29T13:02:21.018Z,14.20
2023-08-29T13:04:56.098Z,12.90
2023-08-29T13:07:28.187Z,14.70
2023-08-29T13:10:00.332Z,15.60
2023-08-29T13:12:34.854Z,12.70
2023-08-29T13:15:12.478Z,12.30
2023-08-29T13:17:48.404Z,11.60
2023-08-29T13:20:21.504Z,12.90
2023-08-29T13:22:57.423Z,11.70
2023-08-29T13:25:37.001Z,12.90
2023-08-29T13:28:11.200Z,11.00
2023-08-29T13:30:43.781Z,11.40
2023-08-29T13:33:19.638Z,12.50
2023-08-29T13:35:53.986Z,13.80
2023-08-29T13:38:27.863Z,11.30
2023-08-29T13:40:59.977Z,12.90
2023-08-29T13:43:33.089Z,17.10
2023-08-29T13:46:15.791Z,13.20
2023-08-29T13:48:48.836Z,11.40
2023-08-29T13:51:25.880Z,14.30
2023-08-29T13:53:58.246Z,12.10
2023-08-29T13:56:38.335Z,13.90
2023-08-29T13:59:15.357Z,13.60
2023-08-29T14:01:56.144Z,12.20
2023-08-29T14:04:31.824Z,12.00
2023-08-29T14:07:16.750Z,13.00
2023-08-29T14:09:49.483Z,12.70
2023-08-29T14:12:22.330Z,14.40
2023-08-29T14:14:54.629Z,11.50
2023-08-29T14:17:26.869Z,11.20
2023-08-29T14:20:06.258Z,12.60
2023-08-29T14:22:46.614Z,9.50
2023-08-29T14:25:19.380Z,11.50
2023-08-29T14:27:52.366Z,10.70
2023-08-29T14:30:24.932Z,10.60
2023-08-29T14:32:57.811Z,13.90
2023-08-29T14:35:30.652Z,13.30
2023-08-29T14:38:06.962Z,11.50
2023-08-29T14:40:42.261Z,12.60
2023-08-29T14:43:16.416Z,11.70
2023-08-29T14:45:53.335Z,13.30
2023-08-29T14:48:25.381Z,11.60
2023-08-29T14:50:57.767Z,12.80
2023-08-29T14:53:30.562Z,11.60
2023-08-29T14:56:06.465Z,10.40
2023-08-29T14:58:38.564Z,12.30
2023-08-29T15:01:15.204Z,13.80
2023-08-29T15:03:47.687Z,10.20
2023-08-29T15:06:20.342Z,11.70
2023-08-29T15:08:52.455Z,12.80
2023-08-29T15:11:29.510Z,10.50
2023-08-29T15:14:01.507Z,11.60
2023-08-29T15:16:36.432Z,12.90
2023-08-29T15:19:08.552Z,12.30
2023-08-29T15:21:47.376Z,9.20
2023-08-29T15:24:22.885Z,13.20
2023-08-29T15:26:55.379Z,11.30
2023-08-29T15:29:31.256Z,12.20
2023-08-29T15:32:06.643Z,11.90
2023-08-29T15:34:38.961Z,10.90
2023-08-29T15:37:11.122Z,12.40
2023-08-29T15:39:46.590Z,12.10
2023-08-29T15:42:22.602Z,11.40
2023-08-29T15:44:54.881Z,12.20
2023-08-29T15:47:29.288Z,9.50
2023-08-29T15:50:01.460Z,9.50
2023-08-29T15:52:33.478Z,10.10
2023-08-29T15:55:06.769Z,11.20
2023-08-29T15:57:38.800Z,11.50
2023-08-29T16:00:15.530Z,10.80
2023-08-29T16:02:56.013Z,11.20
2023-08-29T16:05:29.938Z,10.00
2023-08-29T16:08:03.421Z,11.30
2023-08-29T16:10:38.264Z,9.70
2023-08-29T16:13:12.899Z,10.70
2023-08-29T16:15:46.841Z,9.50
2023-08-29T16:18:18.836Z,9.80
2023-08-29T16:20:56.129Z,10.90
2023-08-29T16:23:28.354Z,12.10
2023-08-29T16:26:13.511Z,11.60
2023-08-29T16:28:48.995Z,10.00
2023-08-29T16:31:21.150Z,9.70
2023-08-29T16:33:53.191Z,9.10
2023-08-29T16:36:25.422Z,12.30
2023-08-29T16:39:00.332Z,9.00
2023-08-29T16:41:32.793Z,11.60
2023-08-29T16:44:05.567Z,9.80
2023-08-29T16:46:42.237Z,11.50
2023-08-29T16:49:15.260Z,9.70
2023-08-29T16:51:51.191Z,10.80
2023-08-29T16:54:23.881Z,9.30
2023-08-29T16:56:59.102Z,8.30
2023-08-29T16:59:34.588Z,9.70
2023-08-29T17:02:08.917Z,9.60
2023-08-29T17:04:41.046Z,10.50
2023-08-29T17:07:13.925Z,12.10
2023-08-29T17:09:48.930Z,11.50
2023-08-29T17:12:22.678Z,10.50
2023-08-29T17:14:56.128Z,9.30
2023-08-29T17:17:28.401Z,9.40
2023-08-29T17:20:00.712Z,12.20
2023-08-29T17:22:33.169Z,9.90
2023-08-29T17:25:05.737Z,14.80
2023-08-29T17:27:39.219Z,13.40
2023-08-29T17:30:13.492Z,13.10
2023-08-29T17:32:48.266Z,9.60
2023-08-29T17:35:20.711Z,9.90
2023-08-29T17:37:53.012Z,11.60
2023-08-29T17:40:25.407Z,10.60
2023-08-29T17:42:57.734Z,9.80
2023-08-29T17:45:32.200Z,9.30
2023-08-29T17:48:04.961Z,11.20
2023-08-29T17:50:37.670Z,9.90
2023-08-29T17:53:09.950Z,11.70
2023-08-29T17:55:42.315Z,10.90
2023-08-29T17:58:16.322Z,13.30
2023-08-29T18:00:52.752Z,12.20
2023-08-29T18:03:26.345Z,8.40
2023-08-29T18:06:10.333Z,9.60
2023-08-29T18:08:53.806Z,8.60
2023-08-29T18:11:26.393Z,9.40
2023-08-29T18:13:58.573Z,15.50
2023-08-29T18:16:30.726Z,9.60
2023-08-29T18:19:03.311Z,9.40
2023-08-29T18:21:35.677Z,7.10
2023-08-29T18:24:08.654Z,8.30
2023-08-29T18:26:41.087Z,8.30
2023-08-29T18:29:13.278Z,9.90
2023-08-29T18:31:49.628Z,9.90
2023-08-29T18:34:22.332Z,12.00
2023-08-29T18:36:57.868Z,10.50
2023-08-29T18:39:32.234Z,14.40
2023-08-29T18:42:08.368Z,11.30
2023-08-29T18:44:40.387Z,14.30
2023-08-29T18:47:12.813Z,13.30
2023-08-29T18:49:45.097Z,14.00
2023-08-29T18:52:17.850Z,15.40
2023-08-29T18:54:50.647Z,15.70
2023-08-29T18:57:23.426Z,11.50
2023-08-29T18:59:55.702Z,14.10
2023-08-29T19:02:28.301Z,13.90
2023-08-29T19:05:02.903Z,12.20
2023-08-29T19:07:35.736Z,13.20
2023-08-29T19:10:10.417Z,15.50
2023-08-29T19:12:42.582Z,12.90
2023-08-29T19:15:16.037Z,16.20
2023-08-29T19:17:52.151Z,13.60
2023-08-29T19:20:30.027Z,14.10
2023-08-29T19:23:02.517Z,13.60
2023-08-29T19:25:39.993Z,15.30
2023-08-29T19:28:21.556Z,14.40
2023-08-29T19:30:55.740Z,20.60
2023-08-29T19:33:28.242Z,16.20
2023-08-29T19:36:17.544Z,14.60
2023-08-29T19:38:59.017Z,16.90
2023-08-29T19:41:37.554Z,17.30
2023-08-29T19:44:11.458Z,15.80
2023-08-29T19:46:43.912Z,15.80
2023-08-29T19:49:16.699Z,16.90
2023-08-29T19:51:57.080Z,14.10
2023-08-29T19:54:34.898Z,16.80
2023-08-29T19:59:38.966Z,14.50
2023-08-29T20:02:11.491Z,13.00
2023-08-29T20:04:46.347Z,17.40
2023-08-29T20:07:18.680Z,18.90
2023-08-29T20:09:51.056Z,13.00
2023-08-29T20:12:27.626Z,12.40
2023-08-29T20:15:03.076Z,16.50
2023-08-29T20:17:37.832Z,14.00
2023-08-29T20:20:15.778Z,15.30
2023-08-29T20:22:50.379Z,14.50
2023-08-29T20:25:27.839Z,15.40
2023-08-29T20:28:00.054Z,13.40
2023-08-29T20:30:42.233Z,18.50
2023-08-29T20:33:15.590Z,14.70
2023-08-29T20:35:49.403Z,17.60
2023-08-29T20:38:21.517Z,16.40
2023-08-29T20:40:54.648Z,15.90
2023-08-29T20:43:26.765Z,14.70
2023-08-29T20:46:02.700Z,15.40
2023-08-29T20:48:34.853Z,19.90
2023-08-29T20:51:09.917Z,14.70
2023-08-29T20:53:43.517Z,13.70
2023-08-29T20:56:15.723Z,14.00
2023-08-29T20:58:48.022Z,17.60
2023-08-29T21:01:20.462Z,12.80
2023-08-29T21:03:53.094Z,14.20
2023-08-29T21:06:26.809Z,15.40
2023-08-29T21:09:00.922Z,13.50
2023-08-29T21:11:33.170Z,12.70
2023-08-29T21:14:05.222Z,13.30
2023-08-29T21:16:37.570Z,13.50
2023-08-29T21:19:15.615Z,15.00
2023-08-29T21:21:51.074Z,16.30
2023-08-29T21:24:23.070Z,15.50
2023-08-29T21:26:56.637Z,13.30
2023-08-29T21:29:28.602Z,15.30
2023-08-29T21:32:00.893Z,13.40
2023-08-29T21:34:35.902Z,12.50
2023-08-29T21:37:15.862Z,12.90
2023-08-29T21:39:49.264Z,16.20
2023-08-29T21:42:21.911Z,13.20
2023-08-29T21:44:55.844Z,15.10
2023-08-29T21:47:28.145Z,18.30
2023-08-29T21:50:00.281Z,14.20
2023-08-29T21:52:32.560Z,15.10
2023-08-29T21:55:09.548Z,16.60
2023-08-29T21:57:45.476Z,14.90
2023-08-29T22:00:20.817Z,13.40
2023-08-29T22:02:55.975Z,14.70
2023-08-29T22:05:30.222Z,12.80
2023-08-29T22:08:05.235Z,14.30
2023-08-29T22:11:02.214Z,15.70
2023-08-29T22:13:36.490Z,16.00
2023-08-29T22:16:08.793Z,14.60
2023-08-29T22:18:42.363Z,15.30
2023-08-29T22:21:14.845Z,16.20
2023-08-29T22:23:49.547Z,16.20
2023-08-29T22:26:21.619Z,15.00
2023-08-29T22:28:56.225Z,15.30
2023-08-29T22:31:29.800Z,17.10
2023-08-29T22:34:02.271Z,15.30
2023-08-29T22:36:35.985Z,14.90
2023-08-29T22:39:11.499Z,18.10
2023-08-29T22:41:43.791Z,15.70
2023-08-29T22:44:18.627Z,18.60
2023-08-29T22:46:50.648Z,19.50
2023-08-29T22:49:22.831Z,19.20
2023-08-29T22:51:54.895Z,23.50
2023-08-29T22:54:30.652Z,17.20
2023-08-29T22:57:09.171Z,18.70
2023-08-29T22:59:41.212Z,19.20
2023-08-29T23:02:13.586Z,20.30
2023-08-29T23:04:48.123Z,20.70
2023-08-29T23:07:21.437Z,20.00
2023-08-29T23:09:53.944Z,21.00
2023-08-29T23:12:26.625Z,18.70
2023-08-29T23:14:59.438Z,20.10
2023-08-29T23:17:31.535Z,22.40
2023-08-29T23:20:05.601Z,17.50
2023-08-29T23:22:37.928Z,19.80
2023-08-29T23:25:13.980Z,15.80
2023-08-29T23:27:47.924Z,18.70
2023-08-29T23:30:20.486Z,20.90
2023-08-29T23:32:54.258Z,16.60
2023-08-29T23:35:26.358Z,20.20
2023-08-29T23:37:58.477Z,23.60
2023-08-29T23:40:30.669Z,21.60
2023-08-29T23:43:10.070Z,18.80
2023-08-29T23:45:42.358Z,22.40
2023-08-29T23:48:16.456Z,17.00
2023-08-29T23:50:48.553Z,21.60
2023-08-29T23:53:20.728Z,21.60
2023-08-29T23:55:53.023Z,21.30
2023-08-29T23:58:25.284Z,21.10
